| time (UTC) | temp F | wind direction | speed MPH | gust MPH | rain 1hr in | rain 24hr in | rain mn in | humidity % | barometer mb |
| 20260902053031 | 59 | 271 | 0.0 | 1.0 | 0.00 | 0.00 | 0.00 | 67 | 1014.2 |
| 20260902051605 | 60 | 332 | 2.0 | 8.0 | 0.00 | 0.00 | 0.00 | 64 | 1013.8 |
| 20260902050029 | 60 | 329 | 4.0 | 12.0 | 0.00 | 0.00 | 0.00 | 64 | 1013.6 |
| 20260902043030 | 61 | 331 | 3.0 | 8.0 | 0.00 | 0.00 | 0.00 | 63 | 1013.4 |
| 20260902041531 | 61 | 323 | 5.0 | 10.0 | 0.00 | 0.00 | 0.00 | 61 | 1013.1 |
| 20260902034530 | 62 | 322 | 6.0 | 16.0 | 0.00 | 0.00 | 0.00 | 60 | 1012.8 |
| 20260902033031 | 62 | 329 | 7.0 | 15.0 | 0.00 | 0.00 | 0.00 | 59 | 1012.5 |
| 20260902031532 | 63 | 321 | 8.0 | 17.0 | 0.00 | 0.00 | 0.00 | 58 | 1012.2 |
| 20260902030035 | 63 | 325 | 7.0 | 16.0 | 0.00 | 0.00 | 0.00 | 57 | 1012.1 |
| 20260902020029 | 65 | 316 | 8.0 | 18.0 | 0.00 | 0.00 | 0.00 | 55 | 1011.8 |
| 20260902014532 | 65 | 321 | 7.0 | 17.0 | 0.00 | 0.00 | 0.00 | 55 | 1011.6 |
| 20260902013032 | 66 | 321 | 6.0 | 13.0 | 0.00 | 0.00 | 0.00 | 56 | 1011.6 |
| 20260902011530 | 66 | 325 | 6.0 | 16.0 | 0.00 | 0.00 | 0.00 | 56 | 1011.3 |
| 20260902010108 | 67 | 325 | 9.0 | 21.0 | 0.00 | 0.00 | 0.00 | 55 | 1010.9 |
| 20260902004605 | 68 | 329 | 9.0 | 20.0 | 0.00 | 0.00 | 0.00 | 55 | 1010.7 |
| 20260902003106 | 68 | 327 | 8.0 | 19.0 | 0.00 | 0.00 | 0.00 | 55 | 1010.8 |
| 20260902001532 | 69 | 332 | 9.0 | 18.0 | 0.00 | 0.00 | 0.00 | 55 | 1010.8 |
| 20260902000145 | 69 | 332 | 10.0 | 19.0 | 0.00 | 0.00 | 0.00 | 55 | 1010.8 |
| 20260901234531 | 69 | 326 | 9.0 | 16.0 | 0.00 | 0.00 | 0.00 | 55 | 1010.8 |
| 20260901233031 | 68 | 328 | 10.0 | 18.0 | 0.00 | 0.00 | 0.00 | 56 | 1011.0 |
| 20260901231532 | 68 | 333 | 9.0 | 16.0 | 0.00 | 0.00 | 0.00 | 55 | 1011.1 |
| 20260901230030 | 69 | 331 | 8.0 | 16.0 | 0.00 | 0.00 | 0.00 | 54 | 1011.1 |
| 20260901224532 | 69 | 330 | 9.0 | 16.0 | 0.00 | 0.00 | 0.00 | 53 | 1011.0 |
| 20260901223030 | 71 | 331 | 9.0 | 18.0 | 0.00 | 0.00 | 0.00 | 51 | 1010.9 |
| 20260901221530 | 72 | 331 | 11.0 | 20.0 | 0.00 | 0.00 | 0.00 | 51 | 1010.8 |
| 20260901220034 | 72 | 328 | 11.0 | 21.0 | 0.00 | 0.00 | 0.00 | 50 | 1010.6 |
| 20260901214532 | 72 | 329 | 10.0 | 20.0 | 0.00 | 0.00 | 0.00 | 50 | 1010.7 |
| 20260901213030 | 72 | 332 | 9.0 | 16.0 | 0.00 | 0.00 | 0.00 | 51 | 1010.8 |
| 20260901211604 | 72 | 335 | 8.0 | 17.0 | 0.00 | 0.00 | 0.00 | 50 | 1010.9 |
| 20260901210145 | 73 | 336 | 9.0 | 17.0 | 0.00 | 0.00 | 0.00 | 49 | 1011.1 |
| 20260901203031 | 75 | 340 | 7.0 | 15.0 | 0.00 | 0.00 | 0.00 | 47 | 1011.3 |
| 20260901201528 | 76 | 334 | 5.0 | 11.0 | 0.00 | 0.00 | 0.00 | 49 | 1011.5 |
| 20260901200034 | 73 | 346 | 5.0 | 10.0 | 0.00 | 0.00 | 0.00 | 52 | 1011.8 |
| 20260901194644 | 72 | 345 | 4.0 | 10.0 | 0.00 | 0.00 | 0.00 | 54 | 1012.0 |
| 20260901193036 | 71 | 352 | 3.0 | 10.0 | 0.00 | 0.00 | 0.00 | 55 | 1012.2 |
| 20260901191537 | 70 | 341 | 3.0 | 8.0 | 0.00 | 0.00 | 0.00 | 56 | 1012.4 |
| 20260901190030 | 70 | 12 | 3.0 | 8.0 | 0.00 | 0.00 | 0.00 | 57 | 1012.5 |
| 20260901184534 | 69 | 349 | 3.0 | 7.0 | 0.00 | 0.00 | 0.00 | 58 | 1012.6 |
| 20260901183029 | 69 | 309 | 2.0 | 8.0 | 0.00 | 0.00 | 0.00 | 59 | 1012.8 |
| 20260901181531 | 68 | 41 | 2.0 | 6.0 | 0.00 | 0.00 | 0.00 | 60 | 1012.9 |
| 20260901180030 | 68 | 331 | 2.0 | 7.0 | 0.00 | 0.00 | 0.00 | 61 | 1012.9 |
| 20260901174532 | 67 | 341 | 2.0 | 6.0 | 0.00 | 0.00 | 0.00 | 61 | 1012.8 |
| 20260901171531 | 63 | 349 | 1.0 | 6.0 | 0.00 | 0.00 | 0.00 | 68 | 1012.8 |
| 20260901170105 | 63 | 328 | 2.0 | 5.0 | 0.00 | 0.00 | 0.00 | 69 | 1012.8 |
| 20260901164531 | 62 | 7 | 2.0 | 6.0 | 0.00 | 0.00 | 0.00 | 71 | 1012.9 |
| 20260901163031 | 61 | 56 | 1.0 | 5.0 | 0.00 | 0.00 | 0.00 | 74 | 1012.9 |
| 20260901161531 | 59 | 67 | 2.0 | 5.0 | 0.00 | 0.00 | 0.00 | 78 | 1012.9 |
| 20260901154529 | 55 | 128 | 0.0 | 4.0 | 0.00 | 0.00 | 0.00 | 83 | 1012.8 |
| 20260901153032 | 54 | 157 | 0.0 | 0.0 | 0.00 | 0.00 | 0.00 | 84 | 1012.8 |
| 20260901151531 | 53 | 171 | 0.0 | 1.0 | 0.00 | 0.00 | 0.00 | 85 | 1012.6 |
| 20260901150031 | 52 | 180 | 0.0 | 0.0 | 0.00 | 0.00 | 0.00 | 85 | 1012.5 |
| 20260901144531 | 51 | 180 | 0.0 | 0.0 | 0.00 | 0.00 | 0.00 | 85 | 1012.5 |
| 20260901143029 | 50 | 180 | 0.0 | 1.0 | 0.00 | 0.00 | 0.00 | 85 | 1012.4 |
| 20260901140033 | 50 | 180 | 1.0 | 3.0 | 0.00 | 0.00 | 0.00 | 82 | 1012.3 |
| 20260901134529 | 49 | 180 | 2.0 | 5.0 | 0.00 | 0.00 | 0.00 | 81 | 1012.1 |
| 20260901131532 | 50 | 180 | 1.0 | 3.0 | 0.00 | 0.00 | 0.00 | 80 | 1011.9 |
| 20260901124530 | 50 | 157 | 0.0 | 2.0 | 0.00 | 0.00 | 0.00 | 79 | 1011.7 |
| 20260901123031 | 50 | 178 | 1.0 | 3.0 | 0.00 | 0.00 | 0.00 | 79 | 1011.7 |
| 20260901121532 | 50 | 180 | 2.0 | 3.0 | 0.00 | 0.00 | 0.00 | 78 | 1011.5 |
| 20260901120030 | 50 | 180 | 0.0 | 2.0 | 0.00 | 0.00 | 0.00 | 78 | 1011.7 |
| 20260901113108 | 50 | 180 | 1.0 | 3.0 | 0.00 | 0.00 | 0.00 | 75 | 1011.7 |
| 20260901111531 | 51 | 180 | 1.0 | 3.0 | 0.00 | 0.00 | 0.00 | 74 | 1011.6 |
| 20260901110030 | 50 | 180 | 2.0 | 3.0 | 0.00 | 0.00 | 0.00 | 73 | 1011.6 |
| 20260901104531 | 50 | 180 | 2.0 | 3.0 | 0.00 | 0.00 | 0.00 | 72 | 1011.7 |
| 20260901103032 | 51 | 180 | 0.0 | 2.0 | 0.00 | 0.00 | 0.00 | 71 | 1011.7 |
| 20260901101608 | 51 | 180 | 0.0 | 2.0 | 0.00 | 0.00 | 0.00 | 71 | 1011.8 |
| 20260901100030 | 51 | 180 | 2.0 | 4.0 | 0.00 | 0.00 | 0.00 | 71 | 1011.7 |
| 20260901094529 | 51 | 180 | 2.0 | 4.0 | 0.00 | 0.00 | 0.00 | 70 | 1011.8 |
| 20260901091531 | 51 | 198 | 0.0 | 3.0 | 0.00 | 0.00 | 0.00 | 68 | 1011.7 |
| 20260901090031 | 51 | 167 | 0.0 | 3.0 | 0.00 | 0.00 | 0.00 | 67 | 1011.8 |
| 20260901084531 | 52 | 157 | 0.0 | 3.0 | 0.00 | 0.00 | 0.00 | 65 | 1011.9 |
| 20260901083030 | 52 | 157 | 0.0 | 0.0 | 0.00 | 0.00 | 0.00 | 64 | 1012.0 |
| 20260901081607 | 53 | 162 | 1.0 | 3.0 | 0.00 | 0.00 | 0.00 | 62 | 1012.0 |
| 20260901080107 | 54 | 180 | 0.0 | 2.0 | 0.00 | 0.00 | 0.00 | 61 | 1012.0 |
| 20260901074530 | 53 | 177 | 1.0 | 4.0 | 0.00 | 0.00 | 0.00 | 61 | 1012.0 |
| 20260901073032 | 54 | 157 | 0.0 | 3.0 | 0.00 | 0.00 | 0.00 | 60 | 1011.9 |
| 20260901071529 | 54 | 157 | 0.0 | 3.0 | 0.00 | 0.00 | 0.00 | 59 | 1011.9 |
| 20260901070037 | 55 | 166 | 1.0 | 4.0 | 0.00 | 0.00 | 0.00 | 58 | 1011.9 |
| 20260901064531 | 56 | 202 | 0.0 | 3.0 | 0.00 | 0.00 | 0.00 | 55 | 1012.0 |
| 20260901063029 | 58 | 191 | 0.0 | 3.0 | 0.00 | 0.00 | 0.00 | 52 | 1012.1 |
| 20260901061531 | 60 | 237 | 0.0 | 3.0 | 0.00 | 0.00 | 0.00 | 48 | 1012.2 |
| 20260901060031 | 61 | 166 | 1.0 | 5.0 | 0.00 | 0.00 | 0.00 | 47 | 1012.2 |
| 20260901054530 | 62 | 166 | 4.0 | 6.0 | 0.00 | 0.00 | 0.00 | 48 | 1012.2 |
| 20260901053106 | 61 | 162 | 4.0 | 7.0 | 0.00 | 0.00 | 0.00 | 49 | 1012.3 |